createdAt,value
2022-11-30T00:02:07.162Z,9.23
2022-11-30T00:07:09.719Z,10.60
2022-11-30T00:12:12.174Z,10.88
2022-11-30T00:17:14.904Z,8.60
2022-11-30T00:22:17.363Z,9.10
2022-11-30T00:27:19.857Z,11.65
2022-11-30T00:32:22.428Z,10.48
2022-11-30T00:37:25.008Z,11.93
2022-11-30T00:42:27.464Z,10.90
2022-11-30T00:47:29.905Z,10.00
2022-11-30T00:52:32.364Z,11.13
2022-11-30T00:57:34.846Z,10.57
2022-11-30T01:02:37.585Z,10.45
2022-11-30T01:07:40.114Z,11.10
2022-11-30T01:12:42.739Z,12.02
2022-11-30T01:17:45.253Z,14.98
2022-11-30T01:22:47.889Z,10.90
2022-11-30T01:27:51.398Z,11.60
2022-11-30T01:32:53.800Z,12.05
2022-11-30T01:37:56.265Z,11.32
2022-11-30T01:42:58.796Z,13.88
2022-11-30T01:48:01.461Z,13.55
2022-11-30T01:53:05.516Z,9.93
2022-11-30T01:58:27.274Z,14.93
2022-11-30T02:03:35.730Z,9.40
2022-11-30T02:08:38.746Z,12.13
2022-11-30T02:14:20.135Z,11.02
2022-11-30T02:20:09.217Z,11.10
2022-11-30T02:25:59.601Z,8.45
2022-11-30T02:31:04.803Z,10.85
2022-11-30T02:36:09.141Z,9.45
2022-11-30T02:41:11.707Z,9.68
2022-11-30T02:46:32.398Z,11.35
2022-11-30T02:51:37.641Z,10.45
2022-11-30T02:56:40.185Z,8.13
2022-11-30T03:01:42.863Z,10.27
2022-11-30T03:06:45.677Z,11.43
2022-11-30T03:11:48.112Z,10.25
2022-11-30T03:16:50.587Z,10.38
2022-11-30T03:21:53.129Z,12.20
2022-11-30T03:26:55.610Z,12.45
2022-11-30T03:31:58.130Z,9.95
2022-11-30T03:37:00.587Z,9.82
2022-11-30T03:42:03.660Z,15.68
2022-11-30T03:47:06.316Z,18.05
2022-11-30T03:52:08.773Z,16.58
2022-11-30T03:57:11.230Z,15.05
2022-11-30T04:02:13.825Z,11.52
2022-11-30T04:07:16.677Z,8.43
2022-11-30T04:12:19.231Z,10.88
2022-11-30T04:17:21.703Z,13.77
2022-11-30T04:22:24.134Z,12.13
2022-11-30T04:27:28.637Z,11.75
2022-11-30T04:32:31.059Z,13.80
2022-11-30T04:37:33.489Z,15.90
2022-11-30T04:42:36.025Z,13.77
2022-11-30T04:47:38.651Z,11.88
2022-11-30T04:52:41.376Z,11.10
2022-11-30T04:57:43.794Z,10.40
2022-11-30T05:02:52.554Z,12.02
2022-11-30T05:07:58.069Z,13.90
2022-11-30T05:13:01.413Z,12.45
2022-11-30T05:18:04.558Z,13.10
2022-11-30T05:23:07.149Z,17.13
2022-11-30T05:28:09.799Z,11.93
2022-11-30T05:33:12.719Z,14.52
2022-11-30T05:38:15.246Z,14.57
2022-11-30T05:43:18.878Z,13.82
2022-11-30T05:48:21.353Z,15.88
2022-11-30T05:53:24.239Z,14.00
2022-11-30T05:58:26.676Z,14.93
2022-11-30T06:03:32.985Z,12.02
2022-11-30T06:08:35.628Z,15.68
2022-11-30T06:13:39.125Z,12.57
2022-11-30T06:18:41.664Z,12.20
2022-11-30T06:23:44.118Z,16.08
2022-11-30T06:28:48.631Z,17.83
2022-11-30T06:33:51.527Z,14.90
2022-11-30T06:38:54.898Z,16.42
2022-11-30T06:43:59.680Z,15.13
2022-11-30T06:49:02.237Z,12.57
2022-11-30T06:54:04.916Z,17.58
2022-11-30T06:59:07.388Z,18.05
2022-11-30T07:04:09.986Z,18.45
2022-11-30T07:09:13.900Z,9.90
2022-11-30T07:14:16.329Z,11.73
2022-11-30T07:19:19.294Z,14.07
2022-11-30T07:24:40.466Z,13.93
2022-11-30T07:29:42.982Z,15.68
2022-11-30T07:34:46.730Z,14.98
2022-11-30T07:39:49.289Z,10.15
2022-11-30T07:44:58.108Z,13.82
2022-11-30T07:50:01.324Z,12.13
2022-11-30T07:55:03.933Z,17.35
2022-11-30T08:00:07.462Z,19.73
2022-11-30T08:05:14.708Z,15.75
2022-11-30T08:10:17.333Z,15.02
2022-11-30T08:15:21.322Z,14.95
2022-11-30T08:25:27.149Z,15.10
2022-11-30T08:30:32.753Z,14.65
2022-11-30T08:35:35.587Z,17.13
2022-11-30T08:40:38.054Z,16.88
2022-11-30T08:45:40.624Z,14.60
2022-11-30T08:50:43.143Z,12.48
2022-11-30T08:55:54.843Z,14.10
2022-11-30T09:01:29.828Z,18.42
2022-11-30T09:06:34.172Z,15.80
2022-11-30T09:11:36.908Z,12.63
2022-11-30T09:16:39.430Z,42.03
2022-11-30T09:21:44.274Z,28.90
2022-11-30T09:26:49.388Z,20.90
2022-11-30T09:31:51.839Z,30.45
2022-11-30T09:36:54.378Z,86.75
2022-11-30T09:42:27.368Z,113.75
2022-11-30T09:48:19.456Z,26.63
2022-11-30T09:53:43.224Z,24.00
2022-11-30T09:58:59.912Z,14.80
2022-11-30T10:04:02.603Z,18.73
2022-11-30T10:09:53.144Z,12.93
2022-11-30T10:15:20.832Z,15.73
2022-11-30T10:20:47.653Z,15.93
2022-11-30T10:26:22.211Z,16.30
2022-11-30T10:31:38.978Z,13.47
2022-11-30T10:36:46.520Z,15.75
2022-11-30T10:47:26.645Z,17.02
2022-11-30T10:52:38.033Z,20.25
2022-11-30T10:57:40.587Z,14.35
2022-11-30T11:02:48.088Z,23.05
2022-11-30T11:08:27.367Z,23.15
2022-11-30T11:13:38.831Z,20.92
2022-11-30T11:18:58.795Z,17.40
2022-11-30T11:24:09.748Z,71.20
2022-11-30T11:29:34.420Z,44.42
2022-11-30T11:34:37.705Z,27.40
2022-11-30T11:39:40.342Z,21.48
2022-11-30T11:44:42.803Z,20.83
2022-11-30T11:49:45.623Z,17.58
2022-11-30T11:55:10.287Z,15.63
2022-11-30T12:00:21.928Z,16.70
2022-11-30T12:06:09.477Z,16.23
2022-11-30T12:11:38.633Z,17.95
2022-11-30T12:17:14.606Z,15.10
2022-11-30T12:22:28.904Z,15.90
2022-11-30T12:28:12.633Z,17.73
2022-11-30T12:33:38.888Z,18.90
2022-11-30T12:38:56.158Z,20.00
2022-11-30T12:44:49.296Z,17.13
2022-11-30T12:50:22.455Z,18.80
2022-11-30T12:55:31.556Z,21.80
2022-11-30T13:01:14.641Z,21.67
2022-11-30T13:06:39.204Z,19.42
2022-11-30T13:11:50.832Z,22.83
2022-11-30T13:17:04.778Z,17.05
2022-11-30T13:22:19.383Z,18.83
2022-11-30T13:27:31.315Z,18.25
2022-11-30T13:38:34.792Z,23.95
2022-11-30T13:43:51.433Z,17.90
2022-11-30T13:49:35.970Z,16.17
2022-11-30T13:54:44.247Z,15.40
2022-11-30T13:59:57.890Z,16.48
2022-11-30T14:05:39.943Z,20.35
2022-11-30T14:10:51.509Z,16.50
2022-11-30T14:16:01.850Z,18.45
2022-11-30T14:21:35.705Z,15.30
2022-11-30T14:26:43.614Z,17.85
2022-11-30T14:31:49.143Z,21.50
2022-11-30T14:36:56.702Z,20.40
2022-11-30T14:41:59.808Z,18.65
2022-11-30T14:47:36.655Z,18.83
2022-11-30T14:53:15.724Z,22.38
2022-11-30T14:58:50.508Z,14.85
2022-11-30T15:03:56.808Z,25.15
2022-11-30T15:09:01.833Z,18.63
2022-11-30T15:19:25.717Z,18.80
2022-11-30T15:24:29.910Z,15.77
2022-11-30T15:29:39.622Z,21.13
2022-11-30T15:34:56.327Z,16.13
2022-11-30T15:40:01.768Z,18.52
2022-11-30T15:45:28.539Z,23.60
2022-11-30T15:50:32.716Z,19.98
2022-11-30T15:55:44.871Z,20.33
2022-11-30T16:01:22.465Z,20.17
2022-11-30T16:06:46.440Z,18.40
2022-11-30T16:11:57.186Z,22.58
2022-11-30T16:17:02.904Z,22.45
2022-11-30T16:22:13.251Z,25.45
2022-11-30T16:27:22.504Z,20.58
2022-11-30T16:32:24.932Z,20.33
2022-11-30T16:37:27.993Z,24.27
2022-11-30T16:42:30.568Z,26.75
2022-11-30T16:47:33.237Z,19.67
2022-11-30T16:52:35.657Z,51.95
2022-11-30T16:57:38.111Z,46.38
2022-11-30T17:02:59.008Z,21.30
2022-11-30T17:08:01.953Z,19.33
2022-11-30T17:13:05.186Z,19.58
2022-11-30T17:18:07.689Z,23.20
2022-11-30T17:23:10.559Z,24.10
2022-11-30T17:28:12.997Z,18.27
2022-11-30T17:33:15.474Z,16.17
2022-11-30T17:38:18.307Z,19.95
2022-11-30T17:43:21.431Z,17.10
2022-11-30T17:48:24.265Z,24.33
2022-11-30T17:53:26.844Z,19.08
2022-11-30T17:58:34.169Z,19.27
2022-11-30T18:03:37.901Z,20.25
2022-11-30T18:08:40.629Z,23.15
2022-11-30T18:13:43.338Z,22.58
2022-11-30T18:18:48.335Z,25.58
2022-11-30T18:23:53.180Z,21.63
2022-11-30T18:28:58.369Z,39.78
2022-11-30T18:34:04.575Z,31.45
2022-11-30T18:39:07.313Z,25.20
2022-11-30T18:44:12.823Z,37.25
2022-11-30T18:49:16.566Z,21.50
2022-11-30T18:54:19.393Z,25.63
2022-11-30T18:59:21.962Z,52.22
2022-11-30T19:04:26.115Z,29.88
2022-11-30T19:09:28.518Z,48.90
2022-11-30T19:14:31.173Z,27.38
2022-11-30T19:19:33.893Z,23.48
2022-11-30T19:24:36.639Z,27.92
2022-11-30T19:29:39.373Z,25.48
2022-11-30T19:34:41.929Z,40.03
2022-11-30T19:39:44.572Z,46.40
2022-11-30T19:44:47.346Z,28.27
2022-11-30T19:49:49.928Z,19.15
2022-11-30T19:54:52.378Z,21.05
2022-11-30T19:59:55.156Z,21.80
2022-11-30T20:04:57.824Z,20.70
2022-11-30T20:10:00.357Z,25.60
2022-11-30T20:15:03.005Z,22.77
2022-11-30T20:20:06.446Z,24.10
2022-11-30T20:25:09.602Z,25.35
2022-11-30T20:30:12.368Z,22.98
2022-11-30T20:35:14.923Z,23.98
2022-11-30T20:40:17.528Z,19.23
2022-11-30T20:45:19.977Z,24.45
2022-11-30T20:50:22.574Z,30.73
2022-11-30T20:55:28.407Z,27.80
2022-11-30T21:00:34.423Z,24.23
2022-11-30T21:05:39.678Z,32.88
2022-11-30T21:10:43.677Z,27.40
2022-11-30T21:15:46.450Z,32.87
2022-11-30T21:20:49.114Z,25.20
2022-11-30T21:25:51.582Z,26.63
2022-11-30T21:30:54.185Z,24.42
2022-11-30T21:35:56.917Z,23.80
2022-11-30T21:41:00.897Z,20.98
2022-11-30T21:46:14.963Z,19.60
2022-11-30T21:51:21.826Z,22.67
2022-11-30T21:56:28.716Z,22.85
2022-11-30T22:01:32.641Z,18.58
2022-11-30T22:06:37.851Z,23.87
2022-11-30T22:11:43.707Z,19.70
2022-11-30T22:16:46.465Z,18.52
2022-11-30T22:21:50.448Z,15.52
2022-11-30T22:26:53.052Z,20.03
2022-11-30T22:31:55.585Z,25.77
2022-11-30T22:36:58.093Z,19.17
2022-11-30T22:42:00.537Z,21.75
2022-11-30T22:47:03.264Z,14.60
2022-11-30T22:52:05.905Z,17.00
2022-11-30T22:57:08.319Z,17.42
2022-11-30T23:02:11.433Z,15.98
2022-11-30T23:07:13.889Z,17.00
2022-11-30T23:12:35.900Z,16.88
2022-11-30T23:17:38.944Z,15.63
2022-11-30T23:22:41.448Z,17.85
2022-11-30T23:27:44.008Z,15.95
2022-11-30T23:32:46.513Z,21.13
2022-11-30T23:37:49.005Z,18.70
2022-11-30T23:42:51.696Z,17.05
2022-11-30T23:47:54.220Z,17.48
2022-11-30T23:52:56.628Z,17.20
2022-11-30T23:57:59.295Z,16.27
